Time;durP1;ratioP1;P1;durP2;ratioP2;P2;SDS_P1;SDS_P2;PMS_P1;PMS_P2;Temp;Humidity;BMP_temperature;BMP_pressure;BME280_temperature;BME280_humidity;BME280_pressure;Samples;Min_cycle;Max_cycle;Signal;HPM_P1;HPM_P2
2022/07/04 00:00:53;;;;;;;0.30;0.30;;;23.00;55.60;;;;;;6170885;28;20719;-66
2022/07/04 00:03:54;;;;;;;0.20;0.20;;;23.00;55.60;;;;;;6170096;28;20089;-67
2022/07/04 00:06:54;;;;;;;0.43;0.30;;;23.00;55.60;;;;;;6170852;28;20030;-67
2022/07/04 00:09:55;;;;;;;0.50;0.40;;;23.00;55.60;;;;;;6170660;28;20026;-67
2022/07/04 00:12:56;;;;;;;0.38;0.20;;;23.00;55.60;;;;;;6170794;28;20080;-67
2022/07/04 00:15:57;;;;;;;0.30;0.28;;;23.00;55.60;;;;;;6170389;28;20035;-67
2022/07/04 00:18:58;;;;;;;0.20;0.20;;;23.00;55.60;;;;;;6170930;28;20034;-67
2022/07/04 00:21:59;;;;;;;0.17;0.17;;;23.00;55.60;;;;;;6170579;28;20370;-66
2022/07/04 00:24:59;;;;;;;0.35;0.30;;;23.00;55.60;;;;;;6158941;28;20030;-67
2022/07/04 00:28:00;;;;;;;0.40;0.40;;;23.00;55.60;;;;;;6168959;28;20098;-66
2022/07/04 00:31:01;;;;;;;0.45;0.30;;;23.00;55.60;;;;;;6170570;28;20030;-67
2022/07/04 00:34:01;;;;;;;0.30;0.30;;;23.00;55.60;;;;;;6170306;28;20029;-66
2022/07/04 00:37:02;;;;;;;0.30;0.30;;;23.00;55.60;;;;;;6171177;28;20027;-67
2022/07/04 00:40:04;;;;;;;0.20;0.20;;;23.00;55.60;;;;;;6171366;28;20034;-67
2022/07/04 00:43:05;;;;;;;0.20;0.20;;;23.00;55.60;;;;;;6167902;28;20038;-68
2022/07/04 00:46:06;;;;;;;0.20;0.20;;;22.90;55.50;;;;;;6170744;28;20118;-68
2022/07/04 00:49:07;;;;;;;0.30;0.20;;;22.90;55.50;;;;;;6170927;28;20053;-68
2022/07/04 00:52:08;;;;;;;0.35;0.35;;;23.00;56.30;;;;;;6169727;28;20486;-67
2022/07/04 00:55:10;;;;;;;0.30;0.30;;;23.00;55.60;;;;;;6169202;28;20022;-68
2022/07/04 00:58:13;;;;;;;0.30;0.20;;;22.90;55.50;;;;;;6169716;28;20509;-68
2022/07/04 01:01:13;;;;;;;0.32;0.30;;;23.00;55.60;;;;;;6170885;28;20115;-68
2022/07/04 01:04:14;;;;;;;0.32;0.32;;;23.00;55.60;;;;;;6170322;28;20035;-68
2022/07/04 01:07:15;;;;;;;0.52;0.20;;;23.00;55.60;;;;;;6171137;28;20062;-67
2022/07/04 01:10:16;;;;;;;0.20;0.20;;;22.90;55.50;;;;;;6170866;28;20081;-67
2022/07/04 01:13:23;;;;;;;0.30;0.22;;;23.00;55.60;;;;;;6170718;28;20070;-67
2022/07/04 01:16:27;;;;;;;0.30;0.30;;;23.00;55.70;;;;;;6170701;28;20046;-67
2022/07/04 01:19:28;;;;;;;0.20;0.20;;;23.00;55.60;;;;;;6172301;28;20385;-67
2022/07/04 01:22:29;;;;;;;0.38;0.30;;;23.00;55.70;;;;;;6158370;28;20034;-67
2022/07/04 01:25:30;;;;;;;0.30;0.30;;;23.00;55.60;;;;;;6174960;28;20022;-67
2022/07/04 01:28:31;;;;;;;0.30;0.28;;;23.00;55.60;;;;;;6175221;28;20385;-67
2022/07/04 01:31:32;;;;;;;0.30;0.22;;;23.00;55.60;;;;;;6174004;28;20027;-67
2022/07/04 01:34:33;;;;;;;0.30;0.22;;;23.00;55.60;;;;;;6173827;28;20058;-67
2022/07/04 01:37:34;;;;;;;0.32;0.30;;;23.00;55.60;;;;;;6173926;28;20050;-67
2022/07/04 01:40:35;;;;;;;0.40;0.30;;;23.00;55.60;;;;;;6173709;28;20050;-67
2022/07/04 01:43:36;;;;;;;0.28;0.28;;;23.00;55.60;;;;;;6173793;28;20121;-67
2022/07/04 01:46:37;;;;;;;0.20;0.20;;;23.00;55.60;;;;;;6173247;28;20047;-67
2022/07/04 01:49:37;;;;;;;0.32;0.30;;;23.00;55.60;;;;;;6173709;28;20038;-67
2022/07/04 01:52:39;;;;;;;0.20;0.20;;;22.90;55.50;;;;;;6175543;28;20030;-67
2022/07/04 01:55:40;;;;;;;0.40;0.38;;;23.00;55.60;;;;;;6174321;28;20031;-67
2022/07/04 01:58:41;;;;;;;0.20;0.20;;;23.00;55.60;;;;;;6174542;28;20035;-67
2022/07/04 02:01:41;;;;;;;0.82;0.40;;;23.00;56.30;;;;;;6174948;28;20058;-67
2022/07/04 02:04:42;;;;;;;0.32;0.30;;;23.00;55.60;;;;;;6174492;28;20034;-67
2022/07/04 02:07:43;;;;;;;0.30;0.22;;;23.00;55.60;;;;;;6174505;28;20034;-67
2022/07/04 02:10:45;;;;;;;0.20;0.20;;;23.00;55.60;;;;;;6174732;28;20030;-67
2022/07/04 02:13:45;;;;;;;0.43;0.30;;;23.00;55.70;;;;;;6174215;28;20038;-68
2022/07/04 02:16:46;;;;;;;0.30;0.30;;;23.00;55.70;;;;;;6174348;28;20372;-67
2022/07/04 02:19:47;;;;;;;0.45;0.40;;;23.00;55.70;;;;;;6174201;28;20026;-67
2022/07/04 02:22:48;;;;;;;0.20;0.20;;;23.00;55.70;;;;;;6174713;28;20106;-67
2022/07/04 02:25:48;;;;;;;0.25;0.25;;;23.00;55.70;;;;;;6170288;28;20077;-67
2022/07/04 02:28:49;;;;;;;0.20;0.20;;;23.00;55.70;;;;;;6173010;28;20027;-66
2022/07/04 02:31:50;;;;;;;0.30;0.30;;;23.00;55.70;;;;;;6172634;28;20038;-67
2022/07/04 02:34:50;;;;;;;0.20;0.20;;;23.00;55.70;;;;;;6173132;28;20034;-67
2022/07/04 02:37:51;;;;;;;0.20;0.20;;;22.90;55.60;;;;;;6172593;28;20485;-67
2022/07/04 02:40:52;;;;;;;0.20;0.20;;;23.00;55.60;;;;;;6172350;28;20244;-67
2022/07/04 02:43:52;;;;;;;0.30;0.30;;;23.00;55.70;;;;;;6172973;28;20034;-68
2022/07/04 02:46:53;;;;;;;0.30;0.30;;;22.90;55.60;;;;;;6171956;28;20109;-67
2022/07/04 02:49:54;;;;;;;0.20;0.20;;;23.00;55.70;;;;;;6155025;28;20065;-67
2022/07/04 02:52:55;;;;;;;0.40;0.40;;;23.00;55.70;;;;;;6173586;28;20424;-68
2022/07/04 02:55:55;;;;;;;0.20;0.20;;;23.00;55.70;;;;;;6173041;28;20034;-67
2022/07/04 02:58:56;;;;;;;0.20;0.20;;;23.00;55.70;;;;;;6172361;28;20358;-67
2022/07/04 03:01:56;;;;;;;0.20;0.20;;;23.00;55.70;;;;;;6172204;28;20031;-68
2022/07/04 03:04:57;;;;;;;0.52;0.30;;;23.00;55.70;;;;;;6172610;28;20457;-67
2022/07/04 03:07:58;;;;;;;0.20;0.20;;;23.00;55.70;;;;;;6173165;28;20026;-68
2022/07/04 03:10:58;;;;;;;0.30;0.30;;;23.00;55.70;;;;;;6173204;28;20082;-67
2022/07/04 03:13:59;;;;;;;0.20;0.20;;;23.00;55.70;;;;;;6173079;28;20151;-67
2022/07/04 03:17:00;;;;;;;0.20;0.20;;;23.00;55.70;;;;;;6172679;28;20035;-67
2022/07/04 03:20:00;;;;;;;0.20;0.20;;;23.00;55.70;;;;;;6172976;28;20066;-68
2022/07/04 03:23:01;;;;;;;0.20;0.20;;;23.00;55.70;;;;;;6173070;28;20094;-67
2022/07/04 03:26:02;;;;;;;0.32;0.30;;;23.00;55.70;;;;;;6171288;28;20023;-67
2022/07/04 03:29:02;;;;;;;0.25;0.20;;;23.00;55.70;;;;;;6171382;28;20023;-67
2022/07/04 03:32:04;;;;;;;0.20;0.20;;;23.00;55.70;;;;;;6170996;28;20495;-67
2022/07/04 03:35:05;;;;;;;0.30;0.22;;;23.00;55.70;;;;;;6171955;28;20027;-67
2022/07/04 03:38:06;;;;;;;0.22;0.22;;;23.00;55.70;;;;;;6171133;28;20093;-68
2022/07/04 03:41:06;;;;;;;0.20;0.20;;;23.00;55.70;;;;;;6171548;28;20110;-67
2022/07/04 03:44:07;;;;;;;0.20;0.20;;;23.00;55.70;;;;;;6171893;28;20102;-67
2022/07/04 03:47:08;;;;;;;0.40;0.28;;;22.90;55.60;;;;;;6171929;28;20057;-67
2022/07/04 03:50:09;;;;;;;0.40;0.30;;;22.90;55.60;;;;;;6172381;28;20026;-68
2022/07/04 03:53:09;;;;;;;0.22;0.22;;;23.00;56.40;;;;;;6171938;28;20023;-68
2022/07/04 03:56:10;;;;;;;0.30;0.30;;;23.00;55.70;;;;;;6172190;28;20394;-67
2022/07/04 03:59:11;;;;;;;0.20;0.20;;;23.00;55.70;;;;;;6171750;28;20030;-67
2022/07/04 04:02:11;;;;;;;0.30;0.30;;;23.00;55.70;;;;;;6170863;28;20042;-67
2022/07/04 04:05:27;;;;;;;0.20;0.20;;;23.00;55.80;;;;;;6170541;28;20031;-67
2022/07/04 04:08:28;;;;;;;0.28;0.20;;;23.00;55.70;;;;;;6170207;28;20158;-68
2022/07/04 04:11:30;;;;;;;0.52;0.20;;;23.00;55.80;;;;;;6164278;28;20382;-67
2022/07/04 04:14:31;;;;;;;0.17;0.17;;;23.00;55.80;;;;;;6170592;28;20031;-67
2022/07/04 04:17:31;;;;;;;0.30;0.30;;;23.00;55.70;;;;;;6170031;28;20027;-67
2022/07/04 04:20:32;;;;;;;0.20;0.20;;;23.00;55.80;;;;;;6170277;28;20039;-67
2022/07/04 04:23:33;;;;;;;0.20;0.20;;;23.00;55.80;;;;;;6169951;28;20026;-67
2022/07/04 04:26:34;;;;;;;0.52;0.30;;;23.00;55.70;;;;;;6171196;28;20527;-68
2022/07/04 04:29:34;;;;;;;0.40;0.22;;;23.00;56.40;;;;;;6171396;28;20046;-67
2022/07/04 04:32:35;;;;;;;0.20;0.20;;;23.00;55.80;;;;;;6170583;28;20389;-67
2022/07/04 04:35:35;;;;;;;0.20;0.20;;;23.00;55.80;;;;;;6170605;28;20035;-68
2022/07/04 04:38:36;;;;;;;0.30;0.30;;;23.00;55.80;;;;;;6171010;28;20026;-67
2022/07/04 04:41:37;;;;;;;0.47;0.20;;;23.00;55.80;;;;;;6171049;28;20054;-67
2022/07/04 04:44:37;;;;;;;0.40;0.30;;;23.00;55.80;;;;;;6171388;28;20031;-68
2022/07/04 04:47:38;;;;;;;0.30;0.30;;;23.00;55.80;;;;;;6170845;28;20125;-67
2022/07/04 04:50:39;;;;;;;0.57;0.30;;;23.00;55.80;;;;;;6171118;28;20117;-67
2022/07/04 04:53:39;;;;;;;0.35;0.30;;;23.00;55.80;;;;;;6168896;28;20019;-67
2022/07/04 04:56:40;;;;;;;0.30;0.30;;;23.00;55.80;;;;;;6170188;28;20034;-67
2022/07/04 05:03:38;;;;;;;0.57;0.20;;;23.00;55.80;;;;;;6168855;28;20038;-68
2022/07/04 05:06:39;;;;;;;0.30;0.30;;;23.00;55.80;;;;;;6169456;28;20034;-67
2022/07/04 05:09:39;;;;;;;0.63;0.20;;;23.00;55.80;;;;;;6170113;28;20073;-68
2022/07/04 05:12:40;;;;;;;0.32;0.32;;;23.00;55.90;;;;;;6170091;28;20027;-68
2022/07/04 05:15:40;;;;;;;0.30;0.30;;;23.00;55.80;;;;;;6171153;28;20441;-67
2022/07/04 05:18:41;;;;;;;0.30;0.30;;;23.00;55.80;;;;;;6170766;28;20050;-67
2022/07/04 05:21:42;;;;;;;0.20;0.20;;;23.00;55.90;;;;;;6170488;28;20097;-67
2022/07/04 05:24:42;;;;;;;0.35;0.20;;;23.00;55.80;;;;;;6169941;28;20026;-68
2022/07/04 05:27:43;;;;;;;0.28;0.28;;;23.00;55.80;;;;;;6170408;28;20058;-67
2022/07/04 05:30:44;;;;;;;0.20;0.20;;;23.00;55.80;;;;;;6170273;28;20031;-68
2022/07/04 05:33:45;;;;;;;0.40;0.30;;;23.00;55.90;;;;;;6171058;28;20027;-67
2022/07/04 05:36:46;;;;;;;0.30;0.30;;;23.00;55.80;;;;;;6170553;28;20026;-67
2022/07/04 05:39:47;;;;;;;0.40;0.35;;;23.00;55.80;;;;;;6168894;28;20031;-68
2022/07/04 05:42:48;;;;;;;0.40;0.30;;;23.00;55.80;;;;;;6168958;28;20038;-67
2022/07/04 05:45:49;;;;;;;0.22;0.22;;;23.00;55.80;;;;;;6168944;28;20452;-67
2022/07/04 05:48:49;;;;;;;0.90;0.30;;;23.00;55.80;;;;;;6168564;28;20059;-68
2022/07/04 05:51:50;;;;;;;0.32;0.32;;;23.00;55.80;;;;;;6170272;28;20027;-67
2022/07/04 05:54:51;;;;;;;0.20;0.20;;;23.00;55.80;;;;;;6169767;28;20513;-67
2022/07/04 05:57:53;;;;;;;0.30;0.30;;;23.00;55.80;;;;;;6169996;28;20133;-67
2022/07/04 06:00:53;;;;;;;0.40;0.35;;;23.00;55.80;;;;;;6170553;28;20117;-67
2022/07/04 06:03:54;;;;;;;0.47;0.38;;;23.00;55.80;;;;;;6172623;28;20358;-67
2022/07/04 06:06:54;;;;;;;0.70;0.40;;;23.00;55.80;;;;;;6175787;28;20023;-67
2022/07/04 06:09:55;;;;;;;0.30;0.30;;;23.00;56.50;;;;;;6176350;28;20019;-67
2022/07/04 06:12:56;;;;;;;0.22;0.22;;;23.00;55.80;;;;;;6176724;28;20381;-67
2022/07/04 06:15:56;;;;;;;0.45;0.45;;;23.00;55.80;;;;;;6176642;28;20114;-67
2022/07/04 06:18:57;;;;;;;0.47;0.20;;;23.00;55.80;;;;;;6176874;28;20090;-67
2022/07/04 06:21:58;;;;;;;0.55;0.32;;;23.00;55.80;;;;;;6164769;28;20046;-67
2022/07/04 06:24:58;;;;;;;0.32;0.30;;;23.00;55.80;;;;;;6173119;28;20031;-67
2022/07/04 06:27:59;;;;;;;0.15;0.15;;;23.00;56.50;;;;;;6170690;28;20023;-68
2022/07/04 06:31:00;;;;;;;0.45;0.30;;;23.00;55.80;;;;;;6148298;28;20023;-67
2022/07/04 06:37:19;;;;;;;0.55;0.28;;;23.00;55.80;;;;;;6174651;28;20030;-67
2022/07/04 06:40:21;;;;;;;0.13;0.10;;;23.00;55.80;;;;;;6173941;28;20579;-67
2022/07/04 06:43:22;;;;;;;0.50;0.50;;;23.00;55.80;;;;;;6145932;28;20030;-67
2022/07/04 06:46:23;;;;;;;0.65;0.47;;;23.00;55.80;;;;;;6174601;28;20019;-67
2022/07/04 06:49:23;;;;;;;1.75;0.50;;;23.00;55.80;;;;;;6174083;28;20422;-67
2022/07/04 06:52:24;;;;;;;0.57;0.35;;;23.00;55.80;;;;;;6174954;28;20030;-68
2022/07/04 06:55:39;;;;;;;1.08;0.40;;;23.00;55.80;;;;;;6162779;28;20113;-67
2022/07/04 06:58:39;;;;;;;0.45;0.40;;;23.00;55.80;;;;;;6174540;28;20058;-67
2022/07/04 07:01:40;;;;;;;0.73;0.50;;;23.00;55.80;;;;;;6173551;28;20045;-67
2022/07/04 07:04:41;;;;;;;0.80;0.45;;;23.00;55.80;;;;;;6172958;28;20034;-67
2022/07/04 07:07:41;;;;;;;0.68;0.52;;;23.00;55.80;;;;;;6174005;28;20030;-67
2022/07/04 07:10:42;;;;;;;0.50;0.40;;;23.00;55.80;;;;;;6164318;28;20041;-67
2022/07/04 07:13:45;;;;;;;3.33;0.50;;;23.00;55.80;;;;;;6173839;28;20385;-67
2022/07/04 07:16:45;;;;;;;1.17;0.50;;;23.00;55.80;;;;;;6172511;28;20125;-67
2022/07/04 07:19:46;;;;;;;0.98;0.60;;;23.00;55.70;;;;;;6173562;28;20026;-67
2022/07/04 07:22:47;;;;;;;0.60;0.47;;;23.00;55.70;;;;;;6173514;28;20023;-68
2022/07/04 07:25:48;;;;;;;0.68;0.45;;;23.00;55.70;;;;;;6172625;28;20038;-67
2022/07/04 07:28:48;;;;;;;0.32;0.32;;;23.00;55.70;;;;;;6159992;28;20048;-67
2022/07/04 07:31:49;;;;;;;0.70;0.50;;;23.00;55.70;;;;;;6172543;28;20023;-67
2022/07/04 07:34:50;;;;;;;0.60;0.50;;;23.00;55.80;;;;;;6164479;28;20129;-67
2022/07/04 07:37:50;;;;;;;0.50;0.40;;;23.00;55.80;;;;;;6158435;28;20023;-67
2022/07/04 07:40:51;;;;;;;0.32;0.30;;;23.00;55.80;;;;;;6173058;28;20125;-67
2022/07/04 07:43:52;;;;;;;0.40;0.40;;;23.00;55.80;;;;;;6157953;28;20023;-68
2022/07/04 07:46:52;;;;;;;0.47;0.30;;;23.00;55.80;;;;;;6173144;28;20054;-67
2022/07/04 07:49:53;;;;;;;0.80;0.50;;;23.00;56.40;;;;;;6172379;28;20035;-67
2022/07/04 07:52:54;;;;;;;0.40;0.38;;;23.00;55.80;;;;;;6172672;28;20030;-67
2022/07/04 07:55:54;;;;;;;0.55;0.45;;;23.00;55.80;;;;;;6172502;28;20033;-67
2022/07/04 07:58:55;;;;;;;0.40;0.40;;;23.00;55.80;;;;;;6172784;28;20093;-67
2022/07/04 08:01:56;;;;;;;0.63;0.40;;;23.00;55.80;;;;;;6171991;28;20038;-67
2022/07/04 08:04:56;;;;;;;1.83;0.60;;;23.00;55.80;;;;;;6172408;28;20030;-67
2022/07/04 08:07:57;;;;;;;0.30;0.30;;;23.00;55.80;;;;;;6157461;28;20577;-67
2022/07/04 08:10:57;;;;;;;0.57;0.40;;;23.00;55.80;;;;;;6159520;28;20027;-67
2022/07/04 08:13:58;;;;;;;0.40;0.40;;;23.00;55.80;;;;;;6172189;28;20550;-67
2022/07/04 08:16:59;;;;;;;0.50;0.30;;;23.00;56.50;;;;;;6171773;28;20035;-68
2022/07/04 08:20:00;;;;;;;0.88;0.50;;;23.00;55.80;;;;;;6171749;28;20466;-67
2022/07/04 08:23:01;;;;;;;0.32;0.32;;;23.00;55.80;;;;;;6171987;28;20022;-67
2022/07/04 08:26:03;;;;;;;0.90;0.40;;;23.00;55.80;;;;;;6171849;28;20102;-67
2022/07/04 08:29:03;;;;;;;0.32;0.32;;;23.00;55.80;;;;;;6171967;28;20090;-67
2022/07/04 08:32:07;;;;;;;0.65;0.50;;;23.00;55.80;;;;;;6172238;28;20018;-68
2022/07/04 08:35:08;;;;;;;0.65;0.30;;;23.00;55.90;;;;;;6165735;28;20085;-67
2022/07/04 08:38:09;;;;;;;0.43;0.30;;;23.00;55.80;;;;;;6167862;28;20033;-67
2022/07/04 08:41:11;;;;;;;0.50;0.30;;;23.00;55.80;;;;;;6171533;28;20035;-67
2022/07/04 08:44:12;;;;;;;0.75;0.43;;;23.00;55.80;;;;;;6169549;28;20038;-67
2022/07/04 08:47:20;;;;;;;0.20;0.20;;;23.00;55.80;;;;;;6171505;28;20039;-67
2022/07/04 08:50:33;;;;;;;0.20;0.20;;;23.00;55.80;;;;;;6161335;28;20470;-67
2022/07/04 08:53:39;;;;;;;0.40;0.40;;;23.00;55.80;;;;;;6171588;28;20029;-68
2022/07/04 08:59:59;;;;;;;0.30;0.30;;;23.00;55.80;;;;;;6171954;28;20043;-67
2022/07/04 09:03:02;;;;;;;0.30;0.30;;;23.00;55.90;;;;;;6171601;28;20180;-69
2022/07/04 09:06:04;;;;;;;0.68;0.40;;;23.00;55.80;;;;;;6171720;28;20117;-68
2022/07/04 09:09:08;;;;;;;0.45;0.40;;;23.10;56.00;;;;;;6171511;28;20035;-68
2022/07/04 09:12:09;;;;;;;0.35;0.30;;;23.10;56.10;;;;;;6172228;28;20564;-68
2022/07/04 09:15:10;;;;;;;0.30;0.30;;;23.10;55.90;;;;;;6171335;28;20355;-67
2022/07/04 09:18:27;;;;;;;0.30;0.30;;;23.00;55.90;;;;;;6172249;28;20018;-67
2022/07/04 09:22:01;;;;;;;0.65;0.40;;;23.00;56.00;;;;;;6160468;28;20047;-68
2022/07/04 09:25:05;;;;;;;3.00;0.30;;;23.00;55.90;;;;;;6155638;28;20042;-67
2022/07/04 09:28:06;;;;;;;0.20;0.20;;;23.00;56.60;;;;;;6167146;28;20026;-67
2022/07/04 09:31:21;;;;;;;1.02;0.45;;;23.00;55.90;;;;;;6167409;28;20066;-67
2022/07/04 09:34:22;;;;;;;2.17;0.30;;;23.00;55.90;;;;;;6171226;28;20486;-67
2022/07/04 09:37:22;;;;;;;0.30;0.30;;;23.00;55.90;;;;;;6161673;28;20030;-68
2022/07/04 09:40:30;;;;;;;0.47;0.40;;;23.00;55.90;;;;;;6145429;28;20038;-68
2022/07/04 09:43:31;;;;;;;0.52;0.22;;;23.00;55.80;;;;;;6177134;28;20518;-67
2022/07/04 09:46:32;;;;;;;0.57;0.40;;;23.10;55.90;;;;;;6176345;28;20050;-67
2022/07/04 09:49:33;;;;;;;0.70;0.28;;;23.10;55.90;;;;;;6176745;28;20158;-67
2022/07/04 09:52:47;;;;;;;3.10;0.40;;;23.10;55.90;;;;;;6176135;28;20030;-67
2022/07/04 09:55:49;;;;;;;0.38;0.30;;;23.20;56.00;;;;;;6152212;29;20482;-68
2022/07/04 09:58:58;;;;;;;0.38;0.30;;;23.20;56.30;;;;;;6164799;28;20034;-68
2022/07/04 10:02:07;;;;;;;2.67;0.40;;;23.20;56.00;;;;;;6169875;28;20512;-67
2022/07/04 10:05:08;;;;;;;0.20;0.20;;;23.20;56.10;;;;;;6173941;28;20031;-67
2022/07/04 10:08:09;;;;;;;1.10;0.40;;;23.10;56.00;;;;;;6175860;28;20110;-67
2022/07/04 10:11:11;;;;;;;1.42;0.30;;;23.20;56.20;;;;;;6176050;28;20061;-67
2022/07/04 10:14:14;;;;;;;1.15;0.40;;;23.10;56.00;;;;;;6162924;28;20031;-68
2022/07/04 10:17:14;;;;;;;0.40;0.40;;;23.10;56.00;;;;;;6153050;29;20031;-67
2022/07/04 10:20:15;;;;;;;1.33;0.30;;;23.10;56.00;;;;;;6173974;28;20114;-68
2022/07/04 10:23:21;;;;;;;1.27;0.38;;;23.10;56.10;;;;;;6176459;28;20018;-68
2022/07/04 10:26:25;;;;;;;2.00;0.35;;;23.10;56.10;;;;;;6176692;28;20089;-67
2022/07/04 10:29:26;;;;;;;0.35;0.35;;;23.10;56.10;;;;;;6176981;28;20033;-68
2022/07/04 10:32:29;;;;;;;0.75;0.30;;;23.10;56.00;;;;;;6176208;28;20106;-67
2022/07/04 10:35:48;;;;;;;1.38;0.30;;;23.00;56.00;;;;;;6176065;28;20080;-67
2022/07/04 10:38:56;;;;;;;0.35;0.25;;;23.10;56.00;;;;;;6176512;28;20026;-68
2022/07/04 10:41:58;;;;;;;0.40;0.32;;;23.00;56.00;;;;;;6176237;28;20142;-68
2022/07/04 10:45:01;;;;;;;0.63;0.30;;;23.00;56.00;;;;;;6175789;28;20022;-67
2022/07/04 10:48:01;;;;;;;0.43;0.30;;;23.00;55.90;;;;;;6175709;28;20138;-67
2022/07/04 10:51:04;;;;;;;0.60;0.40;;;23.10;56.00;;;;;;6150742;28;20038;-67
2022/07/04 10:54:20;;;;;;;0.30;0.30;;;23.00;55.90;;;;;;6162682;28;20026;-68
2022/07/04 10:57:21;;;;;;;;;;;23.00;55.90;;;;;;6176180;28;20442;-67
2022/07/04 11:00:22;;;;;;;0.30;0.30;;;23.00;55.90;;;;;;6175665;28;19925;-68
2022/07/04 11:03:22;;;;;;;1.10;0.30;;;23.00;55.90;;;;;;6175705;28;20030;-68
2022/07/04 11:06:36;;;;;;;0.50;0.30;;;23.00;55.90;;;;;;6175907;28;20027;-68
2022/07/04 11:09:36;;;;;;;0.93;0.30;;;23.00;56.00;;;;;;6176098;28;20031;-68
2022/07/04 11:12:55;;;;;;;0.25;0.20;;;23.00;55.90;;;;;;6175596;28;20034;-67
2022/07/04 11:16:01;;;;;;;0.30;0.20;;;23.00;55.90;;;;;;6175199;28;20055;-67
2022/07/04 11:19:02;;;;;;;0.20;0.20;;;23.00;56.70;;;;;;6175878;28;20030;-67
2022/07/04 11:22:05;;;;;;;0.20;0.20;;;23.00;55.90;;;;;;6175111;28;20468;-67
2022/07/04 11:25:05;;;;;;;0.20;0.20;;;23.00;55.90;;;;;;6175073;28;20118;-67
2022/07/04 11:28:19;;;;;;;0.38;0.20;;;23.00;55.90;;;;;;6175431;28;20026;-68
2022/07/04 11:31:20;;;;;;;0.20;0.20;;;23.00;56.00;;;;;;6175126;28;20030;-67
2022/07/04 11:34:21;;;;;;;0.40;0.30;;;23.00;55.90;;;;;;6174895;28;20371;-67
2022/07/04 11:37:22;;;;;;;0.52;0.30;;;23.00;55.90;;;;;;6175153;28;20050;-68
2022/07/04 11:47:14;;;;;;;0.20;0.20;;;23.00;55.90;;;;;;6150483;29;20059;-68
2022/07/04 11:50:19;;;;;;;0.30;0.20;;;23.00;55.90;;;;;;6160775;28;20034;-67
2022/07/04 11:53:20;;;;;;;0.20;0.20;;;23.00;55.90;;;;;;6174327;28;20027;-68
2022/07/04 11:56:21;;;;;;;0.28;0.28;;;23.00;55.90;;;;;;6174487;28;20065;-67
2022/07/04 11:59:21;;;;;;;0.30;0.30;;;23.00;55.90;;;;;;6174766;28;20070;-68
2022/07/04 12:02:23;;;;;;;0.30;0.22;;;23.00;55.90;;;;;;6173991;28;20027;-67
2022/07/04 12:05:23;;;;;;;0.30;0.20;;;23.00;55.90;;;;;;6174446;28;20061;-68
2022/07/04 12:08:24;;;;;;;0.20;0.20;;;23.00;55.90;;;;;;6174481;28;20473;-67
2022/07/04 12:11:50;;;;;;;0.43;0.32;;;23.00;55.90;;;;;;6174129;28;20027;-68
2022/07/04 12:14:59;;;;;;;0.30;0.30;;;23.00;55.90;;;;;;6174596;28;20022;-67
2022/07/04 12:18:00;;;;;;;0.20;0.20;;;23.00;55.90;;;;;;6173854;28;20396;-68
2022/07/04 12:21:22;;;;;;;0.30;0.30;;;23.00;55.90;;;;;;6173493;28;20118;-67
2022/07/04 12:24:26;;;;;;;0.93;0.30;;;23.00;55.90;;;;;;6174106;28;20027;-67
2022/07/04 12:27:28;;;;;;;0.23;0.23;;;23.00;55.90;;;;;;6173568;28;20516;-67
2022/07/04 12:30:35;;;;;;;1.58;0.30;;;23.00;55.90;;;;;;6173163;28;20023;-67
2022/07/04 12:33:36;;;;;;;0.30;0.30;;;23.00;55.90;;;;;;6173813;28;20039;-68
2022/07/04 12:36:51;;;;;;;0.30;0.30;;;23.00;55.90;;;;;;6161610;28;20885;-68
2022/07/04 12:39:52;;;;;;;0.20;0.20;;;23.00;56.00;;;;;;6164032;28;20093;-67
2022/07/04 12:42:56;;;;;;;0.47;0.30;;;23.00;55.90;;;;;;6170613;28;20031;-67
2022/07/04 12:45:58;;;;;;;0.77;0.30;;;23.00;55.90;;;;;;6169035;28;20406;-67
2022/07/04 12:49:01;;;;;;;0.40;0.20;;;23.00;55.90;;;;;;6170358;28;20051;-67
2022/07/04 12:52:16;;;;;;;0.50;0.30;;;23.00;55.90;;;;;;6171238;28;20030;-67
2022/07/04 12:55:16;;;;;;;1.30;0.60;;;23.00;55.90;;;;;;6168169;28;20397;-67
2022/07/04 12:58:17;;;;;;;0.85;0.52;;;23.00;56.50;;;;;;6171138;28;20038;-68
2022/07/04 13:01:18;;;;;;;1.15;0.55;;;23.00;55.90;;;;;;6171130;28;20026;-68
2022/07/04 13:04:18;;;;;;;1.00;0.60;;;23.00;55.90;;;;;;6170636;28;20027;-68
2022/07/04 13:07:19;;;;;;;1.90;0.77;;;23.00;55.90;;;;;;6169870;28;20035;-68
2022/07/04 13:10:20;;;;;;;1.95;0.60;;;23.00;55.90;;;;;;6169636;28;20114;-68
2022/07/04 13:13:20;;;;;;;1.10;0.70;;;23.00;55.90;;;;;;6169444;28;20086;-68
2022/07/04 13:16:21;;;;;;;1.60;0.60;;;23.00;55.90;;;;;;6165924;28;20031;-68
2022/07/04 13:19:22;;;;;;;0.88;0.50;;;23.00;55.90;;;;;;6171571;28;20026;-67
2022/07/04 13:22:23;;;;;;;0.57;0.40;;;23.00;56.00;;;;;;6171036;28;20119;-67
2022/07/04 13:25:24;;;;;;;2.15;0.52;;;23.00;55.90;;;;;;6168003;28;20359;-67
2022/07/04 13:28:25;;;;;;;2.05;0.80;;;23.00;57.20;;;;;;6166889;28;20456;-67
2022/07/04 13:31:27;;;;;;;1.30;0.50;;;23.10;56.00;;;;;;6160102;28;20037;-67
2022/07/04 13:34:28;;;;;;;2.60;0.60;;;23.10;56.50;;;;;;6170288;28;20457;-69
2022/07/04 13:37:29;;;;;;;1.58;0.50;;;23.10;56.50;;;;;;6171343;28;20035;-67
2022/07/04 13:40:29;;;;;;;1.60;0.50;;;23.10;56.20;;;;;;6171133;28;20089;-67
2022/07/04 13:43:30;;;;;;;1.45;0.50;;;23.10;56.00;;;;;;6171033;28;20033;-67
2022/07/04 13:46:34;;;;;;;2.88;0.50;;;23.10;56.00;;;;;;6170820;28;20041;-68
2022/07/04 13:49:35;;;;;;;0.43;0.32;;;23.10;56.00;;;;;;6160283;28;20320;-67
2022/07/04 13:52:36;;;;;;;1.02;0.50;;;23.10;56.10;;;;;;6170997;28;20034;-68
2022/07/04 13:55:37;;;;;;;1.17;0.50;;;23.10;53.60;;;;;;6170983;28;20077;-68
2022/07/04 13:58:38;;;;;;;1.20;0.40;;;23.20;53.10;;;;;;6170107;28;20497;-67
2022/07/04 14:01:40;;;;;;;0.88;0.30;;;23.30;52.70;;;;;;6170588;28;20069;-67
2022/07/04 14:04:40;;;;;;;0.63;0.38;;;23.40;52.20;;;;;;6170399;28;20030;-67
2022/07/04 14:07:42;;;;;;;0.30;0.30;;;23.50;51.80;;;;;;6170419;28;20530;-68
2022/07/04 14:10:42;;;;;;;0.65;0.40;;;23.50;51.40;;;;;;6171329;28;20026;-67
2022/07/04 14:13:43;;;;;;;0.80;0.50;;;23.60;51.10;;;;;;6170578;28;20532;-67
2022/07/04 14:16:44;;;;;;;0.70;0.32;;;23.70;50.70;;;;;;6170137;28;20058;-67
2022/07/04 14:19:44;;;;;;;0.20;0.20;;;23.80;50.60;;;;;;6170192;28;20027;-67
2022/07/04 14:22:45;;;;;;;0.47;0.30;;;23.80;50.30;;;;;;6170088;28;20046;-67
2022/07/04 14:25:45;;;;;;;0.68;0.30;;;23.90;50.20;;;;;;6170009;28;20118;-67
2022/07/04 14:28:46;;;;;;;0.70;0.40;;;23.90;50.00;;;;;;6174315;28;20018;-67
2022/07/04 14:31:47;;;;;;;0.93;0.30;;;23.90;49.90;;;;;;6174080;28;20023;-68
2022/07/04 14:34:48;;;;;;;1.52;0.40;;;23.90;49.90;;;;;;6171740;28;20041;-67
2022/07/04 14:37:49;;;;;;;0.85;0.30;;;23.90;49.70;;;;;;6174261;28;20011;-67
2022/07/04 14:40:49;;;;;;;0.55;0.47;;;24.00;49.60;;;;;;6174654;28;20027;-68
2022/07/04 14:43:52;;;;;;;0.65;0.30;;;24.00;49.40;;;;;;6173967;28;20042;-68
2022/07/04 14:46:52;;;;;;;0.40;0.30;;;24.00;49.30;;;;;;6174596;28;20051;-68
2022/07/04 14:49:53;;;;;;;0.43;0.38;;;24.00;49.20;;;;;;6174110;28;20031;-67
2022/07/04 14:52:53;;;;;;;0.55;0.30;;;24.00;49.20;;;;;;6174547;28;20033;-68
2022/07/04 14:55:54;;;;;;;0.57;0.40;;;24.00;49.00;;;;;;6173779;28;20509;-66
2022/07/04 14:58:55;;;;;;;0.80;0.45;;;24.00;49.00;;;;;;6174384;28;20034;-68
2022/07/04 15:01:56;;;;;;;1.38;0.45;;;24.00;48.70;;;;;;6172798;28;20474;-67
2022/07/04 15:04:56;;;;;;;1.88;0.65;;;24.00;48.60;;;;;;6155501;28;20034;-68
2022/07/04 15:07:57;;;;;;;0.57;0.32;;;24.00;48.60;;;;;;6163066;28;20085;-67
2022/07/04 15:10:57;;;;;;;0.90;0.50;;;24.00;48.50;;;;;;6173302;28;20071;-67
2022/07/04 15:13:58;;;;;;;0.50;0.35;;;24.00;48.50;;;;;;6163252;28;20473;-67
2022/07/04 15:17:00;;;;;;;0.35;0.30;;;24.00;48.50;;;;;;6172557;28;20030;-67
2022/07/04 15:26:41;;;;;;;0.43;0.40;;;24.00;48.30;;;;;;6158781;28;20024;-68
2022/07/04 15:29:42;;;;;;;0.93;0.30;;;24.00;48.30;;;;;;6172297;28;20037;-67
2022/07/04 15:32:43;;;;;;;0.30;0.30;;;24.00;48.20;;;;;;6172212;28;20027;-67
2022/07/04 15:35:45;;;;;;;0.88;0.50;;;24.00;48.20;;;;;;6163381;28;20114;-67
2022/07/04 15:38:45;;;;;;;0.60;0.30;;;24.00;48.10;;;;;;6172559;28;20029;-68
2022/07/04 15:41:47;;;;;;;0.30;0.30;;;24.00;48.10;;;;;;6156593;28;20034;-68
2022/07/04 15:44:47;;;;;;;0.43;0.35;;;24.00;48.20;;;;;;6172085;28;20105;-67
2022/07/04 15:47:48;;;;;;;0.68;0.40;;;24.00;48.10;;;;;;6147194;28;20133;-67
2022/07/04 15:50:48;;;;;;;0.40;0.30;;;24.00;48.10;;;;;;6173570;28;20059;-68
2022/07/04 15:53:49;;;;;;;0.65;0.38;;;24.00;48.00;;;;;;6172632;28;20216;-67
2022/07/04 15:56:50;;;;;;;0.77;0.50;;;24.00;48.00;;;;;;6173120;28;20049;-66
2022/07/04 15:59:50;;;;;;;0.40;0.30;;;24.00;48.00;;;;;;6172746;28;20503;-67
2022/07/04 16:02:51;;;;;;;0.40;0.30;;;24.00;47.90;;;;;;6172685;28;20097;-67
2022/07/04 16:05:52;;;;;;;0.30;0.30;;;24.00;48.00;;;;;;6172227;28;20027;-67
2022/07/04 16:08:52;;;;;;;0.30;0.30;;;24.00;47.90;;;;;;6172852;28;20035;-68
2022/07/04 16:11:53;;;;;;;1.00;0.40;;;24.00;47.80;;;;;;6172666;28;20030;-68